sensor_id;sensor_type;location;lat;lon;timestamp;temperature;humidity
17370;DHT22;8802;52.402;4.920;2022-11-20T00:00:20;6.00;94.80
17370;DHT22;8802;52.402;4.920;2022-11-20T00:02:46;6.00;94.80
17370;DHT22;8802;52.402;4.920;2022-11-20T00:05:13;6.00;94.70
17370;DHT22;8802;52.402;4.920;2022-11-20T00:07:40;6.00;94.70
17370;DHT22;8802;52.402;4.920;2022-11-20T00:10:08;6.00;94.80
17370;DHT22;8802;52.402;4.920;2022-11-20T00:12:35;6.00;94.80
17370;DHT22;8802;52.402;4.920;2022-11-20T00:15:03;6.00;94.80
17370;DHT22;8802;52.402;4.920;2022-11-20T00:17:30;6.00;94.80
17370;DHT22;8802;52.402;4.920;2022-11-20T00:19:57;6.00;94.80
17370;DHT22;8802;52.402;4.920;2022-11-20T00:22:24;6.00;94.80
17370;DHT22;8802;52.402;4.920;2022-11-20T00:24:51;6.00;94.70
17370;DHT22;8802;52.402;4.920;2022-11-20T00:27:18;6.00;94.70
17370;DHT22;8802;52.402;4.920;2022-11-20T00:29:45;6.00;94.80
17370;DHT22;8802;52.402;4.920;2022-11-20T00:32:13;6.00;94.80
17370;DHT22;8802;52.402;4.920;2022-11-20T00:34:40;5.90;94.80
17370;DHT22;8802;52.402;4.920;2022-11-20T00:37:07;5.90;94.80
17370;DHT22;8802;52.402;4.920;2022-11-20T00:39:34;5.90;94.80
17370;DHT22;8802;52.402;4.920;2022-11-20T00:42:01;5.90;95.00
17370;DHT22;8802;52.402;4.920;2022-11-20T00:44:27;5.90;94.60
17370;DHT22;8802;52.402;4.920;2022-11-20T00:46:55;5.90;94.60
17370;DHT22;8802;52.402;4.920;2022-11-20T00:49:23;5.90;94.70
17370;DHT22;8802;52.402;4.920;2022-11-20T00:51:50;5.90;94.70
17370;DHT22;8802;52.402;4.920;2022-11-20T00:54:17;5.90;94.70
17370;DHT22;8802;52.402;4.920;2022-11-20T00:56:43;5.90;94.70
17370;DHT22;8802;52.402;4.920;2022-11-20T00:59:10;5.80;94.60
17370;DHT22;8802;52.402;4.920;2022-11-20T01:01:37;5.80;94.70
17370;DHT22;8802;52.402;4.920;2022-11-20T01:04:05;5.80;94.70
17370;DHT22;8802;52.402;4.920;2022-11-20T01:06:35;5.80;94.60
17370;DHT22;8802;52.402;4.920;2022-11-20T01:09:04;5.80;94.60
17370;DHT22;8802;52.402;4.920;2022-11-20T01:11:33;5.80;94.70
17370;DHT22;8802;52.402;4.920;2022-11-20T01:14:02;5.80;94.70
17370;DHT22;8802;52.402;4.920;2022-11-20T01:16:31;5.80;94.80
17370;DHT22;8802;52.402;4.920;2022-11-20T01:19:01;5.80;95.10
17370;DHT22;8802;52.402;4.920;2022-11-20T01:21:30;5.80;94.70
17370;DHT22;8802;52.402;4.920;2022-11-20T01:23:59;5.80;94.70
17370;DHT22;8802;52.402;4.920;2022-11-20T01:26:28;5.80;94.70
17370;DHT22;8802;52.402;4.920;2022-11-20T01:28:56;5.80;94.80
17370;DHT22;8802;52.402;4.920;2022-11-20T01:31:25;5.80;94.80
17370;DHT22;8802;52.402;4.920;2022-11-20T01:33:54;5.80;94.80
17370;DHT22;8802;52.402;4.920;2022-11-20T01:36:23;5.70;94.70
17370;DHT22;8802;52.402;4.920;2022-11-20T01:38:51;5.80;94.70
17370;DHT22;8802;52.402;4.920;2022-11-20T01:41:20;5.80;94.70
17370;DHT22;8802;52.402;4.920;2022-11-20T01:44:01;5.70;94.70
17370;DHT22;8802;52.402;4.920;2022-11-20T01:46:31;5.70;94.80
17370;DHT22;8802;52.402;4.920;2022-11-20T01:49:00;5.70;94.80
17370;DHT22;8802;52.402;4.920;2022-11-20T01:51:32;5.70;95.10
17370;DHT22;8802;52.402;4.920;2022-11-20T01:54:04;5.70;94.80
17370;DHT22;8802;52.402;4.920;2022-11-20T01:56:37;5.80;94.80
17370;DHT22;8802;52.402;4.920;2022-11-20T01:59:05;5.70;94.70
17370;DHT22;8802;52.402;4.920;2022-11-20T02:01:34;5.70;94.80
17370;DHT22;8802;52.402;4.920;2022-11-20T02:04:01;5.70;94.90
17370;DHT22;8802;52.402;4.920;2022-11-20T02:06:31;5.60;94.90
17370;DHT22;8802;52.402;4.920;2022-11-20T02:08:59;5.60;94.80
17370;DHT22;8802;52.402;4.920;2022-11-20T02:11:26;5.60;94.80
17370;DHT22;8802;52.402;4.920;2022-11-20T02:13:55;5.60;94.70
17370;DHT22;8802;52.402;4.920;2022-11-20T02:16:24;5.60;94.70
17370;DHT22;8802;52.402;4.920;2022-11-20T02:18:53;5.50;94.70
17370;DHT22;8802;52.402;4.920;2022-11-20T02:21:28;5.60;94.80
17370;DHT22;8802;52.402;4.920;2022-11-20T02:24:13;5.60;94.70
17370;DHT22;8802;52.402;4.920;2022-11-20T02:26:47;5.50;94.70
17370;DHT22;8802;52.402;4.920;2022-11-20T02:29:19;5.50;94.90
17370;DHT22;8802;52.402;4.920;2022-11-20T02:31:50;5.50;94.90
17370;DHT22;8802;52.402;4.920;2022-11-20T02:34:18;5.40;94.70
17370;DHT22;8802;52.402;4.920;2022-11-20T02:36:46;5.50;95.10
17370;DHT22;8802;52.402;4.920;2022-11-20T02:39:16;5.50;94.80
17370;DHT22;8802;52.402;4.920;2022-11-20T02:41:43;5.50;94.90
17370;DHT22;8802;52.402;4.920;2022-11-20T02:44:10;5.50;95.00
17370;DHT22;8802;52.402;4.920;2022-11-20T02:46:37;5.50;94.90
17370;DHT22;8802;52.402;4.920;2022-11-20T02:49:05;5.50;94.70
17370;DHT22;8802;52.402;4.920;2022-11-20T02:51:32;5.40;94.80
17370;DHT22;8802;52.402;4.920;2022-11-20T02:53:59;5.50;95.00
17370;DHT22;8802;52.402;4.920;2022-11-20T02:56:27;5.50;95.00
17370;DHT22;8802;52.402;4.920;2022-11-20T02:58:54;5.40;95.00
17370;DHT22;8802;52.402;4.920;2022-11-20T03:01:21;5.50;95.00
17370;DHT22;8802;52.402;4.920;2022-11-20T03:03:48;5.40;95.00
17370;DHT22;8802;52.402;4.920;2022-11-20T03:06:15;5.40;95.00
17370;DHT22;8802;52.402;4.920;2022-11-20T03:08:42;5.50;95.00
17370;DHT22;8802;52.402;4.920;2022-11-20T03:11:09;5.50;94.90
17370;DHT22;8802;52.402;4.920;2022-11-20T03:13:37;5.40;95.00
17370;DHT22;8802;52.402;4.920;2022-11-20T03:16:07;5.40;94.90
17370;DHT22;8802;52.402;4.920;2022-11-20T03:18:34;5.40;94.90
17370;DHT22;8802;52.402;4.920;2022-11-20T03:21:01;5.40;94.90
17370;DHT22;8802;52.402;4.920;2022-11-20T03:23:30;5.40;94.90
17370;DHT22;8802;52.402;4.920;2022-11-20T03:26:07;5.40;94.90
17370;DHT22;8802;52.402;4.920;2022-11-20T03:28:34;5.40;94.70
17370;DHT22;8802;52.402;4.920;2022-11-20T03:31:07;5.40;94.80
17370;DHT22;8802;52.402;4.920;2022-11-20T03:33:34;5.40;94.90
17370;DHT22;8802;52.402;4.920;2022-11-20T03:36:01;5.30;94.90
17370;DHT22;8802;52.402;4.920;2022-11-20T03:38:29;5.30;94.90
17370;DHT22;8802;52.402;4.920;2022-11-20T03:40:59;5.30;94.90
17370;DHT22;8802;52.402;4.920;2022-11-20T03:43:26;5.30;94.80
17370;DHT22;8802;52.402;4.920;2022-11-20T03:45:53;5.30;94.80
17370;DHT22;8802;52.402;4.920;2022-11-20T03:48:21;5.20;94.90
17370;DHT22;8802;52.402;4.920;2022-11-20T03:50:48;5.40;95.00
17370;DHT22;8802;52.402;4.920;2022-11-20T03:53:15;5.30;95.00
17370;DHT22;8802;52.402;4.920;2022-11-20T03:55:42;5.30;95.00
17370;DHT22;8802;52.402;4.920;2022-11-20T03:58:09;5.30;94.90
17370;DHT22;8802;52.402;4.920;2022-11-20T04:00:36;5.30;95.30
17370;DHT22;8802;52.402;4.920;2022-11-20T04:03:03;5.30;94.80
17370;DHT22;8802;52.402;4.920;2022-11-20T04:05:33;5.30;94.80
17370;DHT22;8802;52.402;4.920;2022-11-20T04:08:00;5.30;94.80
17370;DHT22;8802;52.402;4.920;2022-11-20T04:10:27;5.30;95.20
17370;DHT22;8802;52.402;4.920;2022-11-20T04:12:54;5.30;94.80
17370;DHT22;8802;52.402;4.920;2022-11-20T04:15:21;5.30;94.80
17370;DHT22;8802;52.402;4.920;2022-11-20T04:17:48;5.20;94.90
17370;DHT22;8802;52.402;4.920;2022-11-20T04:20:15;5.30;94.80
17370;DHT22;8802;52.402;4.920;2022-11-20T04:22:43;5.30;94.80
17370;DHT22;8802;52.402;4.920;2022-11-20T04:25:10;5.30;94.80
17370;DHT22;8802;52.402;4.920;2022-11-20T04:27:36;5.20;94.80
17370;DHT22;8802;52.402;4.920;2022-11-20T04:30:04;5.30;94.90
17370;DHT22;8802;52.402;4.920;2022-11-20T04:32:31;5.20;94.90
17370;DHT22;8802;52.402;4.920;2022-11-20T04:34:58;5.40;95.00
17370;DHT22;8802;52.402;4.920;2022-11-20T04:37:25;5.30;94.90
17370;DHT22;8802;52.402;4.920;2022-11-20T04:39:54;5.30;94.90
17370;DHT22;8802;52.402;4.920;2022-11-20T04:42:21;5.20;94.90
17370;DHT22;8802;52.402;4.920;2022-11-20T04:44:57;5.20;94.90
17370;DHT22;8802;52.402;4.920;2022-11-20T04:47:24;5.20;94.90
17370;DHT22;8802;52.402;4.920;2022-11-20T04:49:52;5.20;94.70
17370;DHT22;8802;52.402;4.920;2022-11-20T04:52:18;5.20;94.70
17370;DHT22;8802;52.402;4.920;2022-11-20T04:54:45;5.20;94.80
17370;DHT22;8802;52.402;4.920;2022-11-20T04:57:14;5.20;94.90
17370;DHT22;8802;52.402;4.920;2022-11-20T04:59:41;5.20;94.80
17370;DHT22;8802;52.402;4.920;2022-11-20T05:02:09;5.20;94.90
17370;DHT22;8802;52.402;4.920;2022-11-20T05:04:36;5.10;95.00
17370;DHT22;8802;52.402;4.920;2022-11-20T05:07:03;5.10;95.10
17370;DHT22;8802;52.402;4.920;2022-11-20T05:09:30;5.10;95.20
17370;DHT22;8802;52.402;4.920;2022-11-20T05:11:57;5.10;95.20
17370;DHT22;8802;52.402;4.920;2022-11-20T05:14:25;5.10;95.10
17370;DHT22;8802;52.402;4.920;2022-11-20T05:16:52;5.10;95.10
17370;DHT22;8802;52.402;4.920;2022-11-20T05:19:19;5.10;95.10
17370;DHT22;8802;52.402;4.920;2022-11-20T05:21:46;5.10;95.40
17370;DHT22;8802;52.402;4.920;2022-11-20T05:24:13;5.10;95.20
17370;DHT22;8802;52.402;4.920;2022-11-20T05:26:40;5.10;95.20
17370;DHT22;8802;52.402;4.920;2022-11-20T05:29:09;5.10;95.20
17370;DHT22;8802;52.402;4.920;2022-11-20T05:31:39;5.10;95.10
17370;DHT22;8802;52.402;4.920;2022-11-20T05:34:06;5.10;95.20
17370;DHT22;8802;52.402;4.920;2022-11-20T05:36:33;5.10;95.20
17370;DHT22;8802;52.402;4.920;2022-11-20T05:39:00;5.10;95.10
17370;DHT22;8802;52.402;4.920;2022-11-20T05:41:28;5.10;95.20
17370;DHT22;8802;52.402;4.920;2022-11-20T05:43:56;5.10;95.20
17370;DHT22;8802;52.402;4.920;2022-11-20T05:46:23;5.10;95.10
17370;DHT22;8802;52.402;4.920;2022-11-20T05:48:51;5.00;95.00
17370;DHT22;8802;52.402;4.920;2022-11-20T05:51:19;5.00;95.00
17370;DHT22;8802;52.402;4.920;2022-11-20T05:53:46;5.00;95.20
17370;DHT22;8802;52.402;4.920;2022-11-20T05:56:15;5.00;95.20
17370;DHT22;8802;52.402;4.920;2022-11-20T05:58:42;5.00;95.10
17370;DHT22;8802;52.402;4.920;2022-11-20T06:01:11;5.10;95.10
17370;DHT22;8802;52.402;4.920;2022-11-20T06:03:38;5.00;95.10
17370;DHT22;8802;52.402;4.920;2022-11-20T06:06:07;5.00;95.70
17370;DHT22;8802;52.402;4.920;2022-11-20T06:08:34;5.00;95.30
17370;DHT22;8802;52.402;4.920;2022-11-20T06:11:05;5.00;95.40
17370;DHT22;8802;52.402;4.920;2022-11-20T06:13:32;5.00;95.30
17370;DHT22;8802;52.402;4.920;2022-11-20T06:15:59;5.00;95.30
17370;DHT22;8802;52.402;4.920;2022-11-20T06:18:26;5.10;95.40
17370;DHT22;8802;52.402;4.920;2022-11-20T06:21:00;5.00;95.50
17370;DHT22;8802;52.402;4.920;2022-11-20T06:23:30;5.00;95.40
17370;DHT22;8802;52.402;4.920;2022-11-20T06:25:58;5.10;95.30
17370;DHT22;8802;52.402;4.920;2022-11-20T06:28:27;5.10;95.30
17370;DHT22;8802;52.402;4.920;2022-11-20T06:30:54;5.10;95.30
17370;DHT22;8802;52.402;4.920;2022-11-20T06:33:21;5.10;95.40
17370;DHT22;8802;52.402;4.920;2022-11-20T06:35:47;5.10;95.50
17370;DHT22;8802;52.402;4.920;2022-11-20T06:38:14;5.10;95.50
17370;DHT22;8802;52.402;4.920;2022-11-20T06:40:43;5.10;95.50
17370;DHT22;8802;52.402;4.920;2022-11-20T06:43:10;5.10;95.50
17370;DHT22;8802;52.402;4.920;2022-11-20T06:45:37;5.10;95.40
17370;DHT22;8802;52.402;4.920;2022-11-20T06:48:04;5.20;95.50
17370;DHT22;8802;52.402;4.920;2022-11-20T06:50:31;5.10;95.50
17370;DHT22;8802;52.402;4.920;2022-11-20T06:53:00;5.10;95.40
17370;DHT22;8802;52.402;4.920;2022-11-20T06:55:28;5.10;95.40
17370;DHT22;8802;52.402;4.920;2022-11-20T06:57:56;5.20;95.40
17370;DHT22;8802;52.402;4.920;2022-11-20T07:00:23;5.20;95.40
17370;DHT22;8802;52.402;4.920;2022-11-20T07:02:50;5.20;95.30
17370;DHT22;8802;52.402;4.920;2022-11-20T07:05:17;5.20;95.20
17370;DHT22;8802;52.402;4.920;2022-11-20T07:07:44;5.10;95.20
17370;DHT22;8802;52.402;4.920;2022-11-20T07:10:11;5.20;95.70
17370;DHT22;8802;52.402;4.920;2022-11-20T07:12:38;5.10;95.20
17370;DHT22;8802;52.402;4.920;2022-11-20T07:15:08;5.20;95.30
17370;DHT22;8802;52.402;4.920;2022-11-20T07:17:35;5.20;95.30
17370;DHT22;8802;52.402;4.920;2022-11-20T07:20:02;5.20;95.40
17370;DHT22;8802;52.402;4.920;2022-11-20T07:22:29;5.20;95.40
17370;DHT22;8802;52.402;4.920;2022-11-20T07:24:56;5.20;95.20
17370;DHT22;8802;52.402;4.920;2022-11-20T07:27:23;5.20;95.20
17370;DHT22;8802;52.402;4.920;2022-11-20T07:29:50;5.20;95.30
17370;DHT22;8802;52.402;4.920;2022-11-20T07:32:18;5.20;95.40
17370;DHT22;8802;52.402;4.920;2022-11-20T07:34:45;5.20;95.30
17370;DHT22;8802;52.402;4.920;2022-11-20T07:37:12;5.20;95.20
17370;DHT22;8802;52.402;4.920;2022-11-20T07:39:39;5.30;95.40
17370;DHT22;8802;52.402;4.920;2022-11-20T07:42:06;5.30;95.40
17370;DHT22;8802;52.402;4.920;2022-11-20T07:44:33;5.30;95.40
17370;DHT22;8802;52.402;4.920;2022-11-20T07:47:01;5.30;95.50
17370;DHT22;8802;52.402;4.920;2022-11-20T07:49:29;5.30;95.50
17370;DHT22;8802;52.402;4.920;2022-11-20T07:51:56;5.30;95.50
17370;DHT22;8802;52.402;4.920;2022-11-20T07:54:22;5.40;95.60
17370;DHT22;8802;52.402;4.920;2022-11-20T07:56:49;5.40;95.60
17370;DHT22;8802;52.402;4.920;2022-11-20T07:59:16;5.40;95.90
17370;DHT22;8802;52.402;4.920;2022-11-20T08:01:44;5.40;96.00
17370;DHT22;8802;52.402;4.920;2022-11-20T08:04:10;5.50;96.10
17370;DHT22;8802;52.402;4.920;2022-11-20T08:06:39;5.50;96.00
17370;DHT22;8802;52.402;4.920;2022-11-20T08:09:06;5.50;96.00
17370;DHT22;8802;52.402;4.920;2022-11-20T08:11:33;5.50;95.90
17370;DHT22;8802;52.402;4.920;2022-11-20T08:14:17;5.50;95.90
17370;DHT22;8802;52.402;4.920;2022-11-20T08:16:46;5.50;95.90
17370;DHT22;8802;52.402;4.920;2022-11-20T08:19:14;5.60;95.90
17370;DHT22;8802;52.402;4.920;2022-11-20T08:21:43;5.60;95.80
17370;DHT22;8802;52.402;4.920;2022-11-20T08:24:11;5.60;95.80
17370;DHT22;8802;52.402;4.920;2022-11-20T08:26:39;5.60;95.60
17370;DHT22;8802;52.402;4.920;2022-11-20T08:29:06;5.60;95.50
17370;DHT22;8802;52.402;4.920;2022-11-20T08:31:33;5.60;95.50
17370;DHT22;8802;52.402;4.920;2022-11-20T08:34:00;5.60;95.40
17370;DHT22;8802;52.402;4.920;2022-11-20T08:36:27;5.70;95.40
17370;DHT22;8802;52.402;4.920;2022-11-20T08:38:55;5.80;95.40
17370;DHT22;8802;52.402;4.920;2022-11-20T08:41:22;5.70;95.20
17370;DHT22;8802;52.402;4.920;2022-11-20T08:43:54;5.70;95.40
17370;DHT22;8802;52.402;4.920;2022-11-20T08:46:22;5.70;95.70
17370;DHT22;8802;52.402;4.920;2022-11-20T08:48:49;5.80;95.30
17370;DHT22;8802;52.402;4.920;2022-11-20T08:51:17;5.80;95.40
17370;DHT22;8802;52.402;4.920;2022-11-20T08:53:44;5.90;95.40
17370;DHT22;8802;52.402;4.920;2022-11-20T08:56:12;5.90;95.40
17370;DHT22;8802;52.402;4.920;2022-11-20T08:58:39;5.90;95.30
17370;DHT22;8802;52.402;4.920;2022-11-20T09:01:06;5.90;95.70
17370;DHT22;8802;52.402;4.920;2022-11-20T09:03:33;5.80;95.20
17370;DHT22;8802;52.402;4.920;2022-11-20T09:06:01;5.90;95.30
17370;DHT22;8802;52.402;4.920;2022-11-20T09:08:29;5.90;95.20
17370;DHT22;8802;52.402;4.920;2022-11-20T09:10:57;6.00;95.20
17370;DHT22;8802;52.402;4.920;2022-11-20T09:13:27;6.00;95.00
17370;DHT22;8802;52.402;4.920;2022-11-20T09:15:55;6.00;95.10
17370;DHT22;8802;52.402;4.920;2022-11-20T09:18:22;6.00;95.20
17370;DHT22;8802;52.402;4.920;2022-11-20T09:20:49;6.00;95.40
17370;DHT22;8802;52.402;4.920;2022-11-20T09:23:16;6.00;95.30
17370;DHT22;8802;52.402;4.920;2022-11-20T09:25:43;6.10;95.20
17370;DHT22;8802;52.402;4.920;2022-11-20T09:28:10;6.10;95.20
17370;DHT22;8802;52.402;4.920;2022-11-20T09:30:38;6.10;95.20
17370;DHT22;8802;52.402;4.920;2022-11-20T09:33:05;6.10;95.10
17370;DHT22;8802;52.402;4.920;2022-11-20T09:35:33;6.10;95.10
17370;DHT22;8802;52.402;4.920;2022-11-20T09:38:04;6.20;95.20
17370;DHT22;8802;52.402;4.920;2022-11-20T09:40:32;6.20;94.70
17370;DHT22;8802;52.402;4.920;2022-11-20T09:43:04;6.20;94.60
17370;DHT22;8802;52.402;4.920;2022-11-20T09:45:46;6.20;94.70
17370;DHT22;8802;52.402;4.920;2022-11-20T09:48:35;6.30;94.90
17370;DHT22;8802;52.402;4.920;2022-11-20T09:51:10;6.30;94.80
17370;DHT22;8802;52.402;4.920;2022-11-20T09:53:51;6.30;95.10
17370;DHT22;8802;52.402;4.920;2022-11-20T09:56:21;6.30;94.80
17370;DHT22;8802;52.402;4.920;2022-11-20T09:58:50;6.40;94.70
17370;DHT22;8802;52.402;4.920;2022-11-20T10:01:21;6.40;94.70
17370;DHT22;8802;52.402;4.920;2022-11-20T10:03:54;6.60;95.00
17370;DHT22;8802;52.402;4.920;2022-11-20T10:06:27;6.40;95.00
17370;DHT22;8802;52.402;4.920;2022-11-20T10:09:01;6.50;95.10
17370;DHT22;8802;52.402;4.920;2022-11-20T10:11:38;6.50;95.10
17370;DHT22;8802;52.402;4.920;2022-11-20T10:14:18;6.50;95.10
17370;DHT22;8802;52.402;4.920;2022-11-20T10:16:56;6.60;95.10
17370;DHT22;8802;52.402;4.920;2022-11-20T10:19:44;6.60;95.10
17370;DHT22;8802;52.402;4.920;2022-11-20T10:22:22;6.70;95.00
17370;DHT22;8802;52.402;4.920;2022-11-20T10:24:56;6.70;95.00
17370;DHT22;8802;52.402;4.920;2022-11-20T10:27:40;6.80;95.10
17370;DHT22;8802;52.402;4.920;2022-11-20T10:30:10;6.80;95.00
17370;DHT22;8802;52.402;4.920;2022-11-20T10:32:40;6.90;95.40
17370;DHT22;8802;52.402;4.920;2022-11-20T10:35:18;6.90;95.50
17370;DHT22;8802;52.402;4.920;2022-11-20T10:37:49;6.90;95.40
17370;DHT22;8802;52.402;4.920;2022-11-20T10:40:22;7.00;95.60
17370;DHT22;8802;52.402;4.920;2022-11-20T10:42:52;7.00;95.60
17370;DHT22;8802;52.402;4.920;2022-11-20T10:45:32;7.00;95.70
17370;DHT22;8802;52.402;4.920;2022-11-20T10:48:12;7.10;95.60
17370;DHT22;8802;52.402;4.920;2022-11-20T10:50:49;7.10;95.50
17370;DHT22;8802;52.402;4.920;2022-11-20T10:53:40;7.20;95.70
17370;DHT22;8802;52.402;4.920;2022-11-20T10:56:15;7.20;95.50
17370;DHT22;8802;52.402;4.920;2022-11-20T10:58:52;7.30;95.60
17370;DHT22;8802;52.402;4.920;2022-11-20T11:01:25;7.30;95.70
17370;DHT22;8802;52.402;4.920;2022-11-20T11:03:55;7.30;95.70
17370;DHT22;8802;52.402;4.920;2022-11-20T11:06:31;7.40;95.70
17370;DHT22;8802;52.402;4.920;2022-11-20T11:09:04;7.40;95.60
17370;DHT22;8802;52.402;4.920;2022-11-20T11:11:35;7.40;95.60
17370;DHT22;8802;52.402;4.920;2022-11-20T11:14:05;7.40;95.60
17370;DHT22;8802;52.402;4.920;2022-11-20T11:16:33;7.40;95.30
17370;DHT22;8802;52.402;4.920;2022-11-20T11:19:06;7.40;95.40
17370;DHT22;8802;52.402;4.920;2022-11-20T11:21:33;7.40;95.30
17370;DHT22;8802;52.402;4.920;2022-11-20T11:24:03;7.40;95.40
17370;DHT22;8802;52.402;4.920;2022-11-20T11:26:30;7.40;95.30
17370;DHT22;8802;52.402;4.920;2022-11-20T11:28:58;7.40;95.30
17370;DHT22;8802;52.402;4.920;2022-11-20T11:31:27;7.40;95.40
17370;DHT22;8802;52.402;4.920;2022-11-20T11:34:05;7.40;95.40
17370;DHT22;8802;52.402;4.920;2022-11-20T11:36:33;7.40;95.50
17370;DHT22;8802;52.402;4.920;2022-11-20T11:39:01;7.40;95.60
17370;DHT22;8802;52.402;4.920;2022-11-20T11:41:31;7.40;95.70
17370;DHT22;8802;52.402;4.920;2022-11-20T11:44:03;7.50;95.70
17370;DHT22;8802;52.402;4.920;2022-11-20T11:46:58;7.50;95.80
17370;DHT22;8802;52.402;4.920;2022-11-20T11:49:26;7.50;95.80
17370;DHT22;8802;52.402;4.920;2022-11-20T11:52:01;7.50;95.80
17370;DHT22;8802;52.402;4.920;2022-11-20T11:54:35;7.50;95.80
17370;DHT22;8802;52.402;4.920;2022-11-20T11:57:09;7.60;95.90
17370;DHT22;8802;52.402;4.920;2022-11-20T11:59:44;7.50;95.90
17370;DHT22;8802;52.402;4.920;2022-11-20T12:02:27;7.50;95.80
17370;DHT22;8802;52.402;4.920;2022-11-20T12:05:02;7.50;95.80
17370;DHT22;8802;52.402;4.920;2022-11-20T12:07:39;7.40;96.00
17370;DHT22;8802;52.402;4.920;2022-11-20T12:10:15;7.40;96.10
17370;DHT22;8802;52.402;4.920;2022-11-20T12:12:46;7.40;96.10
17370;DHT22;8802;52.402;4.920;2022-11-20T12:15:31;7.40;96.20
17370;DHT22;8802;52.402;4.920;2022-11-20T12:17:58;7.40;96.10
17370;DHT22;8802;52.402;4.920;2022-11-20T12:20:31;7.40;96.10
17370;DHT22;8802;52.402;4.920;2022-11-20T12:23:04;7.30;96.10
17370;DHT22;8802;52.402;4.920;2022-11-20T12:25:36;7.30;96.10
17370;DHT22;8802;52.402;4.920;2022-11-20T12:28:23;7.20;96.10
17370;DHT22;8802;52.402;4.920;2022-11-20T12:31:09;7.20;96.10
17370;DHT22;8802;52.402;4.920;2022-11-20T12:34:02;7.10;96.30
17370;DHT22;8802;52.402;4.920;2022-11-20T12:36:39;7.10;96.40
17370;DHT22;8802;52.402;4.920;2022-11-20T12:42:14;7.00;96.60
17370;DHT22;8802;52.402;4.920;2022-11-20T12:45:14;7.00;96.70
17370;DHT22;8802;52.402;4.920;2022-11-20T12:47:59;6.90;96.70
17370;DHT22;8802;52.402;4.920;2022-11-20T12:50:40;6.90;96.90
17370;DHT22;8802;52.402;4.920;2022-11-20T12:53:23;6.90;97.10
17370;DHT22;8802;52.402;4.920;2022-11-20T12:55:56;6.90;97.10
17370;DHT22;8802;52.402;4.920;2022-11-20T12:58:30;6.90;97.30
17370;DHT22;8802;52.402;4.920;2022-11-20T13:01:06;6.90;97.30
17370;DHT22;8802;52.402;4.920;2022-11-20T13:03:57;6.90;97.40
17370;DHT22;8802;52.402;4.920;2022-11-20T13:06:27;6.90;97.40
17370;DHT22;8802;52.402;4.920;2022-11-20T13:08:56;6.90;97.50
17370;DHT22;8802;52.402;4.920;2022-11-20T13:11:27;6.80;97.90
17370;DHT22;8802;52.402;4.920;2022-11-20T13:14:05;6.80;97.60
17370;DHT22;8802;52.402;4.920;2022-11-20T13:16:38;6.90;97.60
17370;DHT22;8802;52.402;4.920;2022-11-20T13:19:10;6.80;97.70
17370;DHT22;8802;52.402;4.920;2022-11-20T13:21:40;6.80;97.80
17370;DHT22;8802;52.402;4.920;2022-11-20T13:24:22;6.80;97.90
17370;DHT22;8802;52.402;4.920;2022-11-20T13:27:00;6.80;98.00
17370;DHT22;8802;52.402;4.920;2022-11-20T13:29:28;6.90;98.00
17370;DHT22;8802;52.402;4.920;2022-11-20T13:32:04;6.90;98.10
17370;DHT22;8802;52.402;4.920;2022-11-20T13:34:31;6.90;98.10
17370;DHT22;8802;52.402;4.920;2022-11-20T13:36:59;6.90;98.30
17370;DHT22;8802;52.402;4.920;2022-11-20T13:39:31;6.90;98.30
17370;DHT22;8802;52.402;4.920;2022-11-20T13:42:00;6.90;98.20
17370;DHT22;8802;52.402;4.920;2022-11-20T13:44:30;6.90;98.20
17370;DHT22;8802;52.402;4.920;2022-11-20T13:47:00;6.90;98.20
17370;DHT22;8802;52.402;4.920;2022-11-20T13:49:31;6.90;98.10
17370;DHT22;8802;52.402;4.920;2022-11-20T13:52:07;6.90;98.20
17370;DHT22;8802;52.402;4.920;2022-11-20T13:54:55;6.90;98.20
17370;DHT22;8802;52.402;4.920;2022-11-20T14:00:24;6.90;98.20
17370;DHT22;8802;52.402;4.920;2022-11-20T14:03:01;6.90;98.70
17370;DHT22;8802;52.402;4.920;2022-11-20T14:05:31;6.90;98.30
17370;DHT22;8802;52.402;4.920;2022-11-20T14:08:03;6.90;98.30
17370;DHT22;8802;52.402;4.920;2022-11-20T14:10:32;6.90;98.30
17370;DHT22;8802;52.402;4.920;2022-11-20T14:13:10;6.90;98.40
17370;DHT22;8802;52.402;4.920;2022-11-20T14:15:37;6.90;98.40
17370;DHT22;8802;52.402;4.920;2022-11-20T14:18:12;6.90;98.40
17370;DHT22;8802;52.402;4.920;2022-11-20T14:20:39;6.80;98.50
17370;DHT22;8802;52.402;4.920;2022-11-20T14:23:09;6.80;98.60
17370;DHT22;8802;52.402;4.920;2022-11-20T14:25:42;6.80;98.70
17370;DHT22;8802;52.402;4.920;2022-11-20T14:28:11;6.80;98.80
17370;DHT22;8802;52.402;4.920;2022-11-20T14:30:47;6.80;99.20
17370;DHT22;8802;52.402;4.920;2022-11-20T14:33:14;6.80;98.90
17370;DHT22;8802;52.402;4.920;2022-11-20T14:35:45;6.80;99.00
17370;DHT22;8802;52.402;4.920;2022-11-20T14:38:14;6.80;98.90
17370;DHT22;8802;52.402;4.920;2022-11-20T14:40:43;6.80;98.90
17370;DHT22;8802;52.402;4.920;2022-11-20T14:43:22;6.80;99.00
17370;DHT22;8802;52.402;4.920;2022-11-20T14:45:55;6.80;99.00
17370;DHT22;8802;52.402;4.920;2022-11-20T14:48:28;6.90;99.10
17370;DHT22;8802;52.402;4.920;2022-11-20T14:50:56;6.80;99.00
17370;DHT22;8802;52.402;4.920;2022-11-20T14:53:24;6.80;99.10
17370;DHT22;8802;52.402;4.920;2022-11-20T14:55:57;6.80;99.20
17370;DHT22;8802;52.402;4.920;2022-11-20T14:58:26;6.80;99.30
17370;DHT22;8802;52.402;4.920;2022-11-20T15:00:55;6.80;99.20
17370;DHT22;8802;52.402;4.920;2022-11-20T15:03:22;6.80;99.20
17370;DHT22;8802;52.402;4.920;2022-11-20T15:05:50;6.80;99.20
17370;DHT22;8802;52.402;4.920;2022-11-20T15:08:18;6.80;99.10
17370;DHT22;8802;52.402;4.920;2022-11-20T15:10:46;6.80;99.10
17370;DHT22;8802;52.402;4.920;2022-11-20T15:13:17;6.80;99.20
17370;DHT22;8802;52.402;4.920;2022-11-20T15:15:49;6.80;99.20
17370;DHT22;8802;52.402;4.920;2022-11-20T15:18:18;6.70;99.30
17370;DHT22;8802;52.402;4.920;2022-11-20T15:20:45;6.80;99.40
17370;DHT22;8802;52.402;4.920;2022-11-20T15:23:14;6.70;99.40
17370;DHT22;8802;52.402;4.920;2022-11-20T15:25:42;6.70;99.40
17370;DHT22;8802;52.402;4.920;2022-11-20T15:28:17;6.70;99.80
17370;DHT22;8802;52.402;4.920;2022-11-20T15:30:45;6.70;99.50
17370;DHT22;8802;52.402;4.920;2022-11-20T15:33:13;6.70;99.50
17370;DHT22;8802;52.402;4.920;2022-11-20T15:35:41;6.70;99.50
17370;DHT22;8802;52.402;4.920;2022-11-20T15:38:08;6.70;99.60
17370;DHT22;8802;52.402;4.920;2022-11-20T15:40:35;6.70;99.70
17370;DHT22;8802;52.402;4.920;2022-11-20T15:43:03;6.70;99.70
17370;DHT22;8802;52.402;4.920;2022-11-20T15:45:36;6.60;99.70
17370;DHT22;8802;52.402;4.920;2022-11-20T15:48:05;6.60;99.70
17370;DHT22;8802;52.402;4.920;2022-11-20T15:50:37;6.70;99.80
17370;DHT22;8802;52.402;4.920;2022-11-20T15:53:05;6.70;99.80
17370;DHT22;8802;52.402;4.920;2022-11-20T15:55:32;6.60;99.80
17370;DHT22;8802;52.402;4.920;2022-11-20T15:57:59;6.60;99.90
17370;DHT22;8802;52.402;4.920;2022-11-20T16:00:26;6.70;99.90
17370;DHT22;8802;52.402;4.920;2022-11-20T16:02:54;6.60;99.90
17370;DHT22;8802;52.402;4.920;2022-11-20T16:05:21;6.60;99.90
17370;DHT22;8802;52.402;4.920;2022-11-20T16:07:50;6.60;99.90
17370;DHT22;8802;52.402;4.920;2022-11-20T16:10:17;6.70;99.90
17370;DHT22;8802;52.402;4.920;2022-11-20T16:12:44;6.70;99.90
17370;DHT22;8802;52.402;4.920;2022-11-20T16:15:28;6.70;99.90
17370;DHT22;8802;52.402;4.920;2022-11-20T16:18:17;6.70;99.90
17370;DHT22;8802;52.402;4.920;2022-11-20T16:20:45;6.70;99.90
17370;DHT22;8802;52.402;4.920;2022-11-20T16:23:13;6.70;99.90
17370;DHT22;8802;52.402;4.920;2022-11-20T16:25:41;6.70;99.90